createdAt,value
2022-10-19T00:02:08.570Z,102325.19
2022-10-19T00:04:35.028Z,102318.72
2022-10-19T00:07:01.467Z,102316.84
2022-10-19T00:09:29.163Z,102314.13
2022-10-19T00:11:56.222Z,102323.16
2022-10-19T00:14:23.638Z,102319.59
2022-10-19T00:16:50.908Z,102315.31
2022-10-19T00:19:19.483Z,102317.00
2022-10-19T00:21:46.059Z,102322.75
2022-10-19T00:24:12.635Z,102323.94
2022-10-19T00:26:39.156Z,102331.25
2022-10-19T00:29:06.083Z,102336.56
2022-10-19T00:31:32.855Z,102329.06
2022-10-19T00:33:59.809Z,102335.53
2022-10-19T00:36:26.163Z,102338.25
2022-10-19T00:38:53.338Z,102329.94
2022-10-19T00:41:20.488Z,102326.22
2022-10-19T00:43:51.211Z,102323.63
2022-10-19T00:46:17.594Z,102329.06
2022-10-19T00:48:44.108Z,102328.09
2022-10-19T00:51:10.544Z,102331.78
2022-10-19T00:53:37.085Z,102332.66
2022-10-19T00:56:05.713Z,102330.81
2022-10-19T00:58:32.843Z,102330.25
2022-10-19T01:01:01.435Z,102323.78
2022-10-19T01:03:28.006Z,102321.75
2022-10-19T01:05:54.680Z,102322.06
2022-10-19T01:08:21.164Z,102315.44
2022-10-19T01:11:06.410Z,102332.53
2022-10-19T01:13:32.804Z,102329.06
2022-10-19T01:16:15.248Z,102325.66
2022-10-19T01:18:45.888Z,102319.19
2022-10-19T01:21:12.219Z,102319.91
2022-10-19T01:24:17.987Z,102321.63
2022-10-19T01:27:02.991Z,102333.53
2022-10-19T01:29:35.358Z,102322.63
2022-10-19T01:32:27.828Z,102322.16
2022-10-19T01:35:10.119Z,102317.31
2022-10-19T01:37:50.378Z,102324.63
2022-10-19T01:40:25.879Z,102318.16
2022-10-19T01:42:59.103Z,102321.44
2022-10-19T01:45:28.611Z,102315.84
2022-10-19T01:48:02.153Z,102307.66
2022-10-19T01:50:28.593Z,102300.50
2022-10-19T01:52:55.956Z,102304.94
2022-10-19T01:55:24.428Z,102308.84
2022-10-19T01:57:53.967Z,102305.25
2022-10-19T02:00:21.894Z,102297.94
2022-10-19T02:02:50.313Z,102294.19
2022-10-19T02:05:19.480Z,102293.63
2022-10-19T02:07:49.433Z,102284.31
2022-10-19T02:10:16.073Z,102296.75
2022-10-19T02:12:42.738Z,102292.19
2022-10-19T02:15:11.118Z,102293.88
2022-10-19T02:17:40.216Z,102294.91
2022-10-19T02:20:06.955Z,102292.47
2022-10-19T02:22:33.557Z,102287.19
2022-10-19T02:25:00.263Z,102299.25
2022-10-19T02:27:26.785Z,102297.38
2022-10-19T02:29:54.639Z,102298.00
2022-10-19T02:32:21.122Z,102297.84
2022-10-19T02:34:47.590Z,102305.28
2022-10-19T02:37:14.071Z,102304.69
2022-10-19T02:39:40.498Z,102311.16
2022-10-19T02:42:11.834Z,102300.25
2022-10-19T02:44:38.150Z,102312.72
2022-10-19T02:47:11.402Z,102303.56
2022-10-19T02:49:38.738Z,102306.56
2022-10-19T02:52:07.030Z,102307.59
2022-10-19T02:54:33.518Z,102306.00
2022-10-19T02:56:59.906Z,102307.03
2022-10-19T02:59:26.444Z,102306.31
2022-10-19T03:01:52.882Z,102305.84
2022-10-19T03:04:19.231Z,102303.00
2022-10-19T03:06:45.985Z,102298.22
2022-10-19T03:09:12.364Z,102298.09
2022-10-19T03:11:38.764Z,102305.38
2022-10-19T03:14:05.128Z,102305.25
2022-10-19T03:16:31.457Z,102311.72
2022-10-19T03:18:57.792Z,102317.00
2022-10-19T03:21:24.141Z,102317.72
2022-10-19T03:23:50.563Z,102304.06
2022-10-19T03:26:17.361Z,102306.50
2022-10-19T03:28:43.750Z,102303.63
2022-10-19T03:31:10.140Z,102314.53
2022-10-19T03:33:36.513Z,102310.09
2022-10-19T03:36:12.794Z,102310.94
2022-10-19T03:38:39.142Z,102319.44
2022-10-19T03:41:06.410Z,102324.34
2022-10-19T03:43:32.782Z,102327.06
2022-10-19T03:45:59.105Z,102328.59
2022-10-19T03:48:25.502Z,102331.91
2022-10-19T03:50:59.619Z,102332.75
2022-10-19T03:53:25.975Z,102334.78
2022-10-19T03:55:52.314Z,102336.66
2022-10-19T03:58:18.719Z,102341.78
2022-10-19T04:00:45.125Z,102338.53
2022-10-19T04:03:11.483Z,102337.97
2022-10-19T04:05:37.805Z,102343.44
2022-10-19T04:08:04.294Z,102342.56
2022-10-19T04:10:31.090Z,102341.56
2022-10-19T04:12:57.464Z,102356.91
2022-10-19T04:15:23.816Z,102355.59
2022-10-19T04:17:50.149Z,102352.84
2022-10-19T04:20:16.545Z,102361.88
2022-10-19T04:22:42.880Z,102352.84
2022-10-19T04:25:10.302Z,102363.75
2022-10-19T04:27:36.853Z,102360.34
2022-10-19T04:30:03.978Z,102363.94
2022-10-19T04:32:30.326Z,102370.06
2022-10-19T04:34:56.654Z,102369.78
2022-10-19T04:37:23.037Z,102381.38
2022-10-19T04:39:49.384Z,102375.91
2022-10-19T04:42:15.825Z,102372.34
2022-10-19T04:44:42.191Z,102382.25
2022-10-19T04:47:09.096Z,102374.94
2022-10-19T04:49:35.465Z,102383.13
2022-10-19T04:52:01.862Z,102386.13
2022-10-19T04:54:28.350Z,102388.88
2022-10-19T04:56:54.713Z,102385.97
2022-10-19T04:59:21.089Z,102389.56
2022-10-19T05:01:47.595Z,102398.47
2022-10-19T05:04:13.996Z,102393.84
2022-10-19T05:06:40.376Z,102393.00
2022-10-19T05:09:06.745Z,102394.03
2022-10-19T05:11:33.078Z,102394.03
2022-10-19T05:13:59.480Z,102396.88
2022-10-19T05:16:26.031Z,102393.47
2022-10-19T05:18:56.010Z,102394.31
2022-10-19T05:21:22.782Z,102389.03
2022-10-19T05:23:51.652Z,102384.44
2022-10-19T05:26:19.136Z,102389.41
2022-10-19T05:28:49.230Z,102395.00
2022-10-19T05:31:16.749Z,102392.28
2022-10-19T05:33:43.295Z,102390.44
2022-10-19T05:36:19.621Z,102389.56
2022-10-19T05:38:47.275Z,102383.81
2022-10-19T05:41:13.788Z,102385.22
2022-10-19T05:43:41.399Z,102382.41
2022-10-19T05:46:09.466Z,102392.97
2022-10-19T05:48:35.921Z,102395.25
2022-10-19T05:51:03.085Z,102397.97
2022-10-19T05:53:29.744Z,102403.13
2022-10-19T05:55:56.198Z,102402.13
2022-10-19T05:58:23.130Z,102405.69
2022-10-19T06:00:56.831Z,102403.69
2022-10-19T06:03:23.956Z,102402.97
2022-10-19T06:05:50.402Z,102413.03
2022-10-19T06:08:17.588Z,102414.34
2022-10-19T06:10:44.406Z,102417.22
2022-10-19T06:13:10.860Z,102410.06
2022-10-19T06:15:40.009Z,102412.91
2022-10-19T06:18:10.525Z,102416.50
2022-10-19T06:20:38.055Z,102420.25
2022-10-19T06:23:05.586Z,102419.78
2022-10-19T06:25:32.545Z,102430.41
2022-10-19T06:27:59.267Z,102428.53
2022-10-19T06:30:25.860Z,102432.69
2022-10-19T06:32:52.620Z,102437.44
2022-10-19T06:35:19.100Z,102439.59
2022-10-19T06:37:45.484Z,102449.34
2022-10-19T06:40:12.245Z,102442.03
2022-10-19T06:42:41.293Z,102441.16
2022-10-19T06:45:10.962Z,102449.22
2022-10-19T06:47:37.782Z,102449.34
2022-10-19T06:50:05.464Z,102446.63
2022-10-19T06:52:32.527Z,102460.25
2022-10-19T06:54:59.361Z,102455.13
2022-10-19T06:57:25.830Z,102458.31
2022-10-19T06:59:53.053Z,102456.28
2022-10-19T07:02:20.303Z,102463.75
2022-10-19T07:04:46.776Z,102456.00
2022-10-19T07:07:13.226Z,102467.09
2022-10-19T07:09:39.635Z,102467.53
2022-10-19T07:12:06.124Z,102464.94
2022-10-19T07:14:38.571Z,102464.25
2022-10-19T07:17:05.825Z,102463.38
2022-10-19T07:19:34.948Z,102474.28
2022-10-19T07:22:01.438Z,102468.69
2022-10-19T07:24:28.888Z,102475.31
2022-10-19T07:26:55.653Z,102484.34
2022-10-19T07:29:22.127Z,102487.91
2022-10-19T07:31:48.588Z,102496.97
2022-10-19T07:34:15.143Z,102493.38
2022-10-19T07:36:45.105Z,102501.41
2022-10-19T07:39:12.630Z,102499.69
2022-10-19T07:41:39.191Z,102499.69
2022-10-19T07:44:05.993Z,102497.97
2022-10-19T07:46:33.798Z,102501.41
2022-10-19T07:49:00.674Z,102494.22
2022-10-19T07:51:30.025Z,102506.84
2022-10-19T07:53:57.455Z,102510.31
2022-10-19T07:56:24.891Z,102514.88
2022-10-19T07:58:52.517Z,102513.16
2022-10-19T08:01:23.586Z,102514.00
2022-10-19T08:06:38.605Z,102503.69
2022-10-19T08:09:05.317Z,102498.22
2022-10-19T08:11:33.710Z,102504.69
2022-10-19T08:14:00.172Z,102508.28
2022-10-19T08:16:28.386Z,102506.41
2022-10-19T08:18:58.344Z,102497.19
2022-10-19T08:21:25.967Z,102501.81
2022-10-19T08:23:52.473Z,102502.66
2022-10-19T08:26:19.097Z,102502.66
2022-10-19T08:28:45.844Z,102504.41
2022-10-19T08:31:13.351Z,102508.84
2022-10-19T08:33:39.835Z,102521.47
2022-10-19T08:36:09.895Z,102518.72
2022-10-19T08:38:36.813Z,102522.31
2022-10-19T08:41:10.243Z,102528.63
2022-10-19T08:43:38.853Z,102525.03
2022-10-19T08:46:19.787Z,102528.50
2022-10-19T08:48:46.413Z,102524.06
2022-10-19T08:51:13.099Z,102532.25
2022-10-19T08:53:43.890Z,102520.44
2022-10-19T08:56:45.756Z,102526.63
2022-10-19T08:59:08.844Z,102521.34
2022-10-19T09:01:41.422Z,102518.44
2022-10-19T09:04:13.059Z,102518.59
2022-10-19T09:06:39.498Z,102518.59
2022-10-19T09:09:06.306Z,102524.06
2022-10-19T09:11:35.383Z,102520.44
2022-10-19T09:14:22.123Z,102520.31
2022-10-19T09:16:48.802Z,102528.34
2022-10-19T09:19:24.353Z,102525.59
2022-10-19T09:21:54.818Z,102519.13
2022-10-19T09:24:27.786Z,102517.13
2022-10-19T09:26:55.553Z,102519.88
2022-10-19T09:29:26.434Z,102522.59
2022-10-19T09:34:34.914Z,102540.56
2022-10-19T09:37:01.461Z,102542.38
2022-10-19T09:39:29.645Z,102540.66
2022-10-19T09:41:56.336Z,102541.53
2022-10-19T09:44:23.264Z,102546.88
2022-10-19T09:46:52.309Z,102544.84
2022-10-19T09:49:37.602Z,102547.59
2022-10-19T09:52:04.197Z,102546.72
2022-10-19T09:54:35.714Z,102546.88
2022-10-19T09:57:02.377Z,102553.03
2022-10-19T09:59:30.495Z,102544.16
2022-10-19T10:02:03.975Z,102552.19
2022-10-19T10:04:30.533Z,102549.44
2022-10-19T10:06:57.953Z,102559.34
2022-10-19T10:09:27.247Z,102557.63
2022-10-19T10:14:21.738Z,102567.53
2022-10-19T10:16:48.162Z,102564.81
2022-10-19T10:19:16.465Z,102562.94
2022-10-19T10:21:51.007Z,102570.25
2022-10-19T10:24:18.935Z,102570.25
2022-10-19T10:26:52.676Z,102570.25
2022-10-19T10:29:25.472Z,102571.13
2022-10-19T10:32:10.533Z,102572.13
2022-10-19T10:34:50.942Z,102575.00
2022-10-19T10:37:22.409Z,102563.09
2022-10-19T10:39:53.670Z,102571.13
2022-10-19T10:42:22.506Z,102564.81
2022-10-19T10:44:51.165Z,102567.53
2022-10-19T10:47:20.403Z,102562.06
2022-10-19T10:49:54.389Z,102568.38
2022-10-19T10:52:20.890Z,102568.72
2022-10-19T10:55:06.335Z,102566.66
2022-10-19T10:57:35.982Z,102574.84
2022-10-19T11:00:08.123Z,102571.13
2022-10-19T11:02:40.671Z,102571.97
2022-10-19T11:05:17.188Z,102577.41
2022-10-19T11:07:45.501Z,102569.25
2022-10-19T11:10:26.606Z,102573.72
2022-10-19T11:13:04.445Z,102570.97
2022-10-19T11:15:35.019Z,102569.97
2022-10-19T11:18:12.524Z,102574.56
2022-10-19T11:20:42.613Z,102576.44
2022-10-19T11:23:09.177Z,102590.06
2022-10-19T11:25:49.346Z,102584.63
2022-10-19T11:28:34.504Z,102583.75
2022-10-19T11:31:19.284Z,102590.06
2022-10-19T11:33:54.971Z,102582.88
2022-10-19T11:36:35.307Z,102588.22
2022-10-19T11:39:10.877Z,102578.16
2022-10-19T11:41:43.358Z,102581.72
2022-10-19T11:44:12.769Z,102580.03
2022-10-19T11:46:45.686Z,102575.59
2022-10-19T11:49:30.963Z,102575.72
2022-10-19T11:52:06.406Z,102578.31
2022-10-19T11:54:44.732Z,102569.41
2022-10-19T11:57:21.207Z,102563.78
2022-10-19T12:00:14.373Z,102566.38
2022-10-19T12:03:06.372Z,102560.06
2022-10-19T12:05:35.775Z,102552.88
2022-10-19T12:08:14.313Z,102567.25
2022-10-19T12:11:07.013Z,102562.81
2022-10-19T12:13:48.152Z,102560.94
2022-10-19T12:16:15.188Z,102549.16
2022-10-19T12:18:49.387Z,102558.34
2022-10-19T12:21:22.841Z,102561.94
2022-10-19T12:23:50.322Z,102551.03
2022-10-19T12:28:52.247Z,102554.47
2022-10-19T12:31:19.072Z,102549.16
2022-10-19T12:33:49.447Z,102552.75
2022-10-19T12:36:26.836Z,102549.00
2022-10-19T12:39:08.259Z,102549.16
2022-10-19T12:41:40.802Z,102541.84
2022-10-19T12:44:19.510Z,102540.13
2022-10-19T12:46:53.006Z,102532.81
2022-10-19T12:49:26.201Z,102539.25
2022-10-19T12:51:54.020Z,102542.84
2022-10-19T12:54:34.163Z,102540.13
2022-10-19T12:57:01.844Z,102539.25
2022-10-19T12:59:35.227Z,102541.97
2022-10-19T13:02:04.500Z,102525.59
2022-10-19T13:04:32.500Z,102531.94
2022-10-19T13:07:08.065Z,102534.66
2022-10-19T13:09:37.404Z,102530.19
2022-10-19T13:12:19.726Z,102540.13
2022-10-19T13:15:12.965Z,102535.53
2022-10-19T13:17:50.585Z,102535.53
2022-10-19T13:20:16.999Z,102546.44
2022-10-19T13:22:46.291Z,102541.84
2022-10-19T13:25:24.135Z,102539.09
2022-10-19T13:27:51.453Z,102536.38
2022-10-19T13:30:47.144Z,102530.94
2022-10-19T13:33:22.710Z,102533.66
2022-10-19T13:35:49.220Z,102525.59
2022-10-19T13:38:15.568Z,102536.50
2022-10-19T13:40:51.134Z,102533.94
2022-10-19T13:43:19.286Z,102533.78
2022-10-19T13:46:04.396Z,102535.66
2022-10-19T13:48:36.930Z,102537.53
2022-10-19T13:51:10.414Z,102532.06
2022-10-19T13:54:03.085Z,102523.88
2022-10-19T13:56:29.461Z,102529.50
2022-10-19T13:58:57.635Z,102525.75
2022-10-19T14:01:40.359Z,102535.97
2022-10-19T14:04:16.319Z,102532.41
2022-10-19T14:06:42.808Z,102524.22
2022-10-19T14:09:23.661Z,102520.56
2022-10-19T14:11:51.734Z,102528.75
2022-10-19T14:14:19.841Z,102523.28
2022-10-19T14:17:03.181Z,102523.44
2022-10-19T14:19:51.071Z,102525.16
2022-10-19T14:22:25.663Z,102534.34
2022-10-19T14:24:52.500Z,102523.59
2022-10-19T14:27:23.153Z,102518.16
2022-10-19T14:29:50.937Z,102517.31
2022-10-19T14:32:18.755Z,102515.44
2022-10-19T14:34:46.633Z,102518.28
2022-10-19T14:37:16.201Z,102518.28
2022-10-19T14:39:42.629Z,102511.97
2022-10-19T14:42:10.258Z,102515.56
2022-10-19T14:44:39.669Z,102511.97
2022-10-19T14:47:17.291Z,102510.25
2022-10-19T14:49:43.701Z,102514.00
2022-10-19T14:52:13.095Z,102520.31
2022-10-19T14:54:42.032Z,102523.16
2022-10-19T14:57:34.990Z,102514.13
2022-10-19T15:00:03.201Z,102516.00
2022-10-19T15:02:32.140Z,102516.16
2022-10-19T15:05:00.510Z,102517.03
2022-10-19T15:07:33.543Z,102516.00
2022-10-19T15:10:01.329Z,102513.44
2022-10-19T15:12:36.259Z,102517.19
2022-10-19T15:15:07.411Z,102514.56
2022-10-19T15:17:51.161Z,102509.13
2022-10-19T15:20:29.195Z,102511.00
2022-10-19T15:22:56.585Z,102513.03
2022-10-19T15:25:22.905Z,102516.59
2022-10-19T15:27:50.904Z,102529.38
2022-10-19T15:30:18.559Z,102522.91
2022-10-19T15:32:47.884Z,102513.03
2022-10-19T15:35:20.459Z,102515.88
2022-10-19T15:37:48.470Z,102515.03
2022-10-19T15:40:21.361Z,102512.47
2022-10-19T15:42:49.012Z,102506.16
2022-10-19T15:45:35.028Z,102506.28
2022-10-19T15:48:13.115Z,102516.31
2022-10-19T15:50:49.618Z,102505.41
2022-10-19T15:53:16.294Z,102511.03
2022-10-19T15:55:42.643Z,102511.88
2022-10-19T15:58:09.848Z,102510.19
2022-10-19T16:00:36.447Z,102518.19
2022-10-19T16:03:02.793Z,102517.50
2022-10-19T16:05:29.372Z,102519.34
2022-10-19T16:07:55.981Z,102527.50
2022-10-19T16:10:23.885Z,102530.56
2022-10-19T16:12:50.262Z,102526.09
2022-10-19T16:15:22.195Z,102527.97
2022-10-19T16:17:58.769Z,102533.56
2022-10-19T16:20:26.372Z,102534.44
2022-10-19T16:22:52.779Z,102540.03
2022-10-19T16:25:19.362Z,102542.75
2022-10-19T16:27:46.037Z,102547.47
2022-10-19T16:30:12.847Z,102542.03
2022-10-19T16:35:12.090Z,102551.06
2022-10-19T16:37:38.481Z,102553.78
2022-10-19T16:40:05.307Z,102551.06
2022-10-19T16:42:32.314Z,102555.66
2022-10-19T16:44:58.949Z,102564.84
2022-10-19T16:47:25.371Z,102559.56
2022-10-19T16:49:57.604Z,102560.41
2022-10-19T16:52:24.041Z,102562.28
2022-10-19T16:54:52.762Z,102560.53
2022-10-19T16:57:19.311Z,102559.69
2022-10-19T16:59:45.755Z,102556.94
2022-10-19T17:02:14.216Z,102566.16
2022-10-19T17:04:40.670Z,102567.16
2022-10-19T17:07:07.053Z,102569.88
2022-10-19T17:09:42.127Z,102560.00
2022-10-19T17:12:09.736Z,102573.47
2022-10-19T17:14:36.595Z,102575.47
2022-10-19T17:17:03.355Z,102583.63
2022-10-19T17:19:29.981Z,102578.34
2022-10-19T17:21:57.587Z,102582.94
2022-10-19T17:24:24.203Z,102588.22
2022-10-19T17:26:51.511Z,102588.38
2022-10-19T17:29:18.429Z,102591.97
2022-10-19T17:31:44.982Z,102591.13
2022-10-19T17:34:11.398Z,102592.97
2022-10-19T17:39:17.539Z,102593.09
2022-10-19T17:41:44.917Z,102600.41
2022-10-19T17:44:11.402Z,102599.56
2022-10-19T17:46:37.872Z,102601.44
2022-10-19T17:49:04.436Z,102602.28
2022-10-19T17:51:32.339Z,102601.44
2022-10-19T17:53:59.877Z,102601.44
2022-10-19T17:56:26.611Z,102604.16
2022-10-19T17:58:53.334Z,102600.56
2022-10-19T18:01:20.905Z,102602.44
2022-10-19T18:03:47.559Z,102599.84
2022-10-19T18:06:18.530Z,102604.44
2022-10-19T18:08:49.572Z,102610.75
2022-10-19T18:11:18.116Z,102607.31
2022-10-19T18:13:45.586Z,102608.31
2022-10-19T18:16:13.462Z,102607.47
2022-10-19T18:18:40.706Z,102612.91
2022-10-19T18:21:10.256Z,102602.03
2022-10-19T18:23:37.072Z,102607.59
2022-10-19T18:26:12.140Z,102609.47
2022-10-19T18:28:38.593Z,102608.59
2022-10-19T18:31:07.960Z,102615.06
2022-10-19T18:33:34.655Z,102611.34
2022-10-19T18:36:01.174Z,102611.47
2022-10-19T18:38:27.657Z,102608.75
2022-10-19T18:40:54.200Z,102613.31
2022-10-19T18:43:20.555Z,102612.47
2022-10-19T18:45:57.601Z,102611.59
2022-10-19T18:48:24.888Z,102616.19
2022-10-19T18:50:51.557Z,102609.03
2022-10-19T18:53:19.815Z,102610.75
2022-10-19T18:55:46.312Z,102610.03
2022-10-19T18:58:18.030Z,102606.16
2022-10-19T19:00:47.602Z,102603.72
2022-10-19T19:03:14.232Z,102608.31
2022-10-19T19:05:40.576Z,102601.88
2022-10-19T19:08:06.982Z,102605.47
2022-10-19T19:10:33.327Z,102607.31
2022-10-19T19:12:59.741Z,102605.72
2022-10-19T19:15:26.084Z,102608.47
2022-10-19T19:17:53.733Z,102613.03
2022-10-19T19:20:20.188Z,102607.59
2022-10-19T19:22:49.191Z,102608.59
2022-10-19T19:25:17.919Z,102611.34
2022-10-19T19:27:46.106Z,102605.03
2022-10-19T19:30:12.575Z,102608.72
2022-10-19T19:32:39.023Z,102607.88
2022-10-19T19:35:05.595Z,102616.19
2022-10-19T19:37:32.158Z,102611.59
2022-10-19T19:40:00.817Z,102616.19
2022-10-19T19:42:27.991Z,102619.03
2022-10-19T19:45:00.190Z,102617.22
2022-10-19T19:47:27.630Z,102619.94
2022-10-19T19:49:54.005Z,102620.91
2022-10-19T19:52:22.851Z,102626.50
2022-10-19T19:54:49.287Z,102612.03
2022-10-19T19:57:15.679Z,102614.75
2022-10-19T19:59:42.055Z,102610.31
2022-10-19T20:02:09.205Z,102612.16
2022-10-19T20:04:35.661Z,102621.22
2022-10-19T20:07:04.892Z,102621.34
2022-10-19T20:09:43.048Z,102622.34
2022-10-19T20:12:09.382Z,102624.22
2022-10-19T20:14:41.718Z,102620.63
2022-10-19T20:17:10.526Z,102627.06
2022-10-19T20:19:37.063Z,102628.06
2022-10-19T20:22:04.363Z,102636.13
2022-10-19T20:24:32.024Z,102636.25
2022-10-19T20:27:00.541Z,102638.97
2022-10-19T20:29:26.930Z,102634.69
2022-10-19T20:31:53.274Z,102628.22
2022-10-19T20:34:23.849Z,102637.25
2022-10-19T20:36:50.452Z,102630.09
2022-10-19T20:39:16.835Z,102622.91
2022-10-19T20:41:43.287Z,102628.47
2022-10-19T20:44:09.755Z,102624.19
2022-10-19T20:46:37.093Z,102626.59
2022-10-19T20:49:03.800Z,102633.06
2022-10-19T20:51:32.634Z,102633.06
2022-10-19T20:54:00.382Z,102628.47
2022-10-19T20:56:28.859Z,102621.31
2022-10-19T20:58:56.516Z,102617.72
2022-10-19T21:01:23.627Z,102624.19
2022-10-19T21:03:52.689Z,102626.91
2022-10-19T21:06:19.703Z,102628.72
2022-10-19T21:08:46.144Z,102633.19
2022-10-19T21:11:16.907Z,102628.72
2022-10-19T21:13:43.586Z,102629.75
2022-10-19T21:16:13.124Z,102642.50
2022-10-19T21:18:40.036Z,102633.47
2022-10-19T21:21:10.826Z,102638.19
2022-10-19T21:23:37.270Z,102645.38
2022-10-19T21:26:03.731Z,102640.06
2022-10-19T21:28:30.082Z,102642.94
2022-10-19T21:30:56.444Z,102649.22
2022-10-19T21:33:25.550Z,102642.94
2022-10-19T21:35:51.930Z,102637.63
2022-10-19T21:38:18.345Z,102637.75
2022-10-19T21:40:44.701Z,102636.88
2022-10-19T21:43:11.449Z,102631.59
2022-10-19T21:45:38.300Z,102631.59
2022-10-19T21:48:04.740Z,102632.44
2022-10-19T21:50:31.162Z,102635.19
2022-10-19T21:52:57.726Z,102628.00
2022-10-19T21:55:25.037Z,102626.16
2022-10-19T21:57:51.478Z,102631.59
2022-10-19T22:00:17.846Z,102633.47
2022-10-19T22:02:44.176Z,102630.84
2022-10-19T22:05:10.572Z,102631.72
2022-10-19T22:07:37.328Z,102629.84
2022-10-19T22:10:05.068Z,102620.56
2022-10-19T22:12:31.619Z,102625.72
2022-10-19T22:14:58.082Z,102623.44
2022-10-19T22:17:24.450Z,102617.72
2022-10-19T22:19:50.942Z,102619.19
2022-10-19T22:22:17.337Z,102615.19
2022-10-19T22:24:43.816Z,102608.47
2022-10-19T22:27:10.260Z,102603.88
2022-10-19T22:29:36.635Z,102597.13
2022-10-19T22:32:03.283Z,102589.22
2022-10-19T22:34:32.167Z,102586.09
2022-10-19T22:36:58.822Z,102584.50
2022-10-19T22:39:27.783Z,102580.19
2022-10-19T22:41:54.546Z,102582.50
2022-10-19T22:44:20.890Z,102580.47
2022-10-19T22:46:47.276Z,102576.03
2022-10-19T22:49:13.704Z,102568.72
2022-10-19T22:51:40.135Z,102567.72
2022-10-19T22:54:06.499Z,102570.44
2022-10-19T22:56:32.964Z,102566.75
2022-10-19T22:59:04.133Z,102570.75
2022-10-19T23:01:30.704Z,102575.88
2022-10-19T23:03:57.126Z,102570.59
2022-10-19T23:06:23.587Z,102575.88
2022-10-19T23:08:50.027Z,102576.91
2022-10-19T23:11:16.443Z,102584.22
2022-10-19T23:13:42.913Z,102581.50
2022-10-19T23:16:09.641Z,102585.06
2022-10-19T23:18:37.213Z,102587.94
2022-10-19T23:21:05.691Z,102578.03
2022-10-19T23:23:32.688Z,102587.09
2022-10-19T23:25:59.026Z,102581.75
2022-10-19T23:28:25.469Z,102589.09
2022-10-19T23:30:51.970Z,102595.53
2022-10-19T23:33:18.387Z,102585.75
2022-10-19T23:35:44.761Z,102583.16
2022-10-19T23:38:11.256Z,102587.88
2022-10-19T23:40:37.632Z,102584.19
2022-10-19T23:43:04.091Z,102576.00
2022-10-19T23:45:30.422Z,102588.88
2022-10-19T23:47:56.788Z,102589.03
2022-10-19T23:50:23.157Z,102581.31
2022-10-19T23:52:49.550Z,102592.91
2022-10-19T23:55:15.919Z,102581.16
2022-10-19T23:57:42.274Z,102580.44
